Latest Weather Observations for Busselton Airport

IDW60801

Issued at 9:35 pm WST Wednesday 26 November 2014 (issued every 30 minutes, with the page automatically refreshed every 10 minutes)

About weather observations | Map of weather stations | Latest weather observations for WA | Other Formats
Station Details ID: 009603 Name: BUSSELTON AERO Lat: -33.69 Lon: 115.40 Height: 16.3 m
Data from the previous 72 hours. | See also: Recent months at Busselton Airport
Date/Time
WST
Temp
°C
App
Temp
°C
Dew
Point
Rel
Hum
%
Delta-T
°C
Wind Press
QNH
hPa
Press
MSL
hPa
Rain
since 9 am
mm
Dir
 
Spd
km/h
Gust
km/h
Spd
kts
Gust
kts
26/09:30pm 18.6 16.7 15.7 83 1.7 SSE 20 28 11 15 1013.0 1013.0 3.6
26/09:00pm 18.3 16.5 16.1 87 1.3 SSE 20 30 11 16 1013.5 1013.5 3.6
26/08:30pm 18.4 16.8 16.4 88 1.2 SE 20 22 11 12 1014.2 1014.2 3.4
26/08:00pm 19.1 19.5 16.3 84 1.7 S 9 11 5 6 1014.4 1014.4 3.2
26/07:30pm 19.6 18.2 16.6 83 1.8 SSW 19 26 10 14 1014.0 1014.0 3.0
26/07:00pm 19.8 19.4 18.1 90 1.1 SW 17 22 9 12 1013.0 1013.0 2.8
26/06:30pm 20.5 19.4 17.3 82 2.0 SW 19 20 10 11 1012.4 1012.4 2.2
26/06:00pm 21.6 20.7 16.8 74 2.9 SSW 17 19 9 10 1011.1 1011.1 0.6
26/05:30pm 22.6 20.8 15.4 64 4.3 S 19 20 10 11 1010.5 1010.5 0.0
26/05:00pm 25.0 23.3 13.5 48 6.7 ESE 15 24 8 13 1010.6 1010.6 0.0
26/04:30pm 25.4 21.8 14.2 50 6.6 SE 26 32 14 17 1009.3 1009.3 0.0
26/04:00pm 25.5 23.3 14.3 50 6.7 SE 19 24 10 13 1010.9 1010.9 0.0
26/03:30pm 24.5 23.6 14.9 55 5.7 SSE 13 15 7 8 1011.4 1011.4 0.0
26/03:00pm 25.0 23.2 14.5 52 6.3 SW 17 22 9 12 1011.8 1011.8 0.0
26/02:30pm 26.1 25.2 12.5 42 7.9 NW 9 13 5 7 1012.5 1012.5 0.0
26/02:00pm 27.3 25.2 11.3 37 9.1 SE 13 17 7 9 1011.7 1011.7 0.0
26/01:30pm 26.9 23.5 11.4 38 8.8 SE 20 24 11 13 1011.2 1011.2 0.0
26/01:00pm 27.0 24.6 11.5 38 8.9 E 15 22 8 12 1011.8 1011.8 0.0
26/12:30pm 26.8 23.3 10.9 37 9.0 E 20 28 11 15 1012.3 1012.3 0.0
26/12:00pm 26.5 23.1 10.6 37 8.9 E 19 26 10 14 1012.3 1012.3 0.0
26/11:30am 25.1 22.1 10.6 40 8.1 ESE 17 24 9 13 1012.6 1012.6 0.0
26/11:00am 24.9 20.5 10.4 40 8.1 E 24 32 13 17 1012.9 1012.9 0.0
26/10:30am 24.2 19.3 10.1 41 7.8 ENE 26 35 14 19 1013.5 1013.5 0.0
26/10:00am 23.7 18.4 10.0 42 7.5 E 28 33 15 18 1013.3 1013.3 0.0
26/09:30am 24.0 19.1 9.9 41 7.7 E 26 33 14 18 1013.5 1013.5 0.0
26/09:00am 23.9 19.8 10.2 42 7.5 E 22 32 12 17 1014.1 1014.1 0.0
26/08:30am 21.9 16.6 9.8 46 6.5 E 28 35 15 19 1014.3 1014.3 0.0
26/08:00am 21.2 17.6 10.4 50 5.9 E 20 30 11 16 1014.4 1014.4 0.0
26/07:30am 19.7 16.0 10.1 54 5.2 E 20 28 11 15 1014.7 1014.7 0.0
26/07:00am 19.1 13.8 9.9 55 4.9 E 28 37 15 20 1014.5 1014.5 0.0
26/06:30am 18.5 13.1 9.6 56 4.7 E 28 37 15 20 1014.6 1014.6 0.0
26/06:00am 17.3 12.7 9.7 61 4.0 E 24 33 13 18 1014.9 1014.9 0.0
26/05:30am 16.7 12.1 9.6 63 3.7 E 24 35 13 19 1015.0 1015.0 0.0
26/05:00am 15.9 11.7 9.6 66 3.3 E 22 32 12 17 1015.1 1015.1 0.0
26/04:30am 15.4 10.8 9.5 68 3.1 E 24 33 13 18 1014.9 1014.9 0.0
26/04:00am 15.7 10.7 9.4 66 3.3 E 26 35 14 19 1014.6 1014.6 0.0
26/03:30am 15.9 10.4 9.1 64 3.5 E 28 41 15 22 1014.4 1014.4 0.0
26/03:00am 16.1 10.9 8.8 62 3.7 E 26 33 14 18 1014.6 1014.6 0.0
26/02:30am 16.5 11.0 9.0 61 3.9 E 28 37 15 20 1014.5 1014.5 0.0
26/02:00am 16.8 11.2 8.8 59 4.1 E 28 37 15 20 1014.5 1014.5 0.0
26/01:30am 17.4 11.2 8.0 54 4.8 E 30 39 16 21 1014.9 1014.9 0.0
26/01:00am 17.8 12.0 8.1 53 4.9 E 28 37 15 20 1015.1 1015.1 0.0
26/12:30am 18.3 13.5 8.8 54 4.9 E 24 35 13 19 1015.4 1015.4 0.0
26/12:00am 18.6 13.9 9.1 54 5.0 E 24 30 13 16 1015.5 1015.5 0.0
 
Date/Time
WST
Temp
°C
App
Temp
°C
Dew
Point
Rel
Hum
%
Delta-T
°C
Wind Press
QNH
hPa
Press
MSL
hPa
Rain
since 9 am
mm
Dir
 
Spd
km/h
Gust
km/h
Spd
kts
Gust
kts
25/11:30pm 18.7 14.9 9.2 54 5.0 ESE 19 30 10 16 1015.8 1015.8 0.0
25/11:00pm 19.4 15.6 9.9 54 5.1 ESE 20 28 11 15 1015.9 1015.9 0.0
25/10:30pm 20.4 16.8 10.5 53 5.4 ESE 20 30 11 16 1015.9 1015.9 0.0
25/10:00pm 20.6 16.8 11.0 54 5.3 ESE 22 30 12 16 1016.2 1016.2 0.0
25/09:30pm 20.5 16.9 12.0 58 4.7 SE 22 32 12 17 1016.3 1016.3 0.0
25/09:00pm 20.9 17.2 12.6 59 4.7 SSE 24 33 13 18 1016.1 1016.1 0.0
25/08:30pm 20.9 16.8 12.8 60 4.6 S 26 33 14 18 1015.9 1015.9 0.0
25/08:00pm 21.4 17.7 12.8 58 4.9 S 24 32 13 17 1015.8 1015.8 0.0
25/07:30pm 21.7 17.7 13.1 58 4.9 S 26 35 14 19 1015.8 1015.8 0.0
25/07:00pm 22.3 18.6 12.8 55 5.4 S 24 33 13 18 1015.8 1015.8 0.0
25/06:30pm 23.6 19.5 12.6 50 6.3 S 26 39 14 21 1015.9 1015.9 0.0
25/06:00pm 24.8 19.8 12.1 45 7.2 S 30 35 16 19 1015.9 1015.9 0.0
25/05:30pm 25.9 20.6 12.4 43 7.8 S 32 39 17 21 1015.7 1015.7 0.0
25/05:00pm 26.7 21.2 12.4 41 8.3 SSW 33 43 18 23 1015.9 1015.9 0.0
25/04:30pm 27.6 22.1 12.0 38 9.0 SSW 32 43 17 23 1015.9 1015.9 0.0
25/04:26pm 28.0 22.5 12.0 37 9.3 SSW 32 43 17 23 1015.9 1015.9 0.0
25/04:00pm 29.5 25.3 5.6 22 12.5 SE 17 24 9 13 1016.0 1016.0 0.0
25/03:30pm 30.0 26.7 4.6 20 13.1 SE 11 20 6 11 1016.2 1016.2 0.0
25/03:00pm 29.7 25.9 5.7 22 12.6 SE 15 22 8 12 1016.6 1016.6 0.0
25/02:30pm 29.1 24.8 5.2 22 12.4 SE 17 30 9 16 1017.0 1017.0 0.0
25/02:00pm 28.5 24.1 4.7 22 12.2 ENE 17 26 9 14 1017.2 1017.2 0.0
25/01:30pm 29.1 24.9 5.9 23 12.2 E 17 30 9 16 1017.6 1017.6 0.0
25/01:00pm 28.8 25.3 7.4 26 11.5 ESE 15 26 8 14 1018.1 1018.1 0.0
25/12:30pm 27.4 24.3 7.3 28 10.7 E 13 22 7 12 1018.5 1018.5 0.0
25/12:00pm 26.9 23.3 8.4 31 10.0 E 17 26 9 14 1018.8 1018.8 0.0
25/11:30am 26.2 22.4 7.7 31 9.9 ESE 17 32 9 17 1019.2 1019.2 0.0
25/11:00am 25.4 21.1 8.0 33 9.3 E 20 28 11 15 1019.5 1019.5 0.0
25/10:30am 24.7 20.8 8.6 36 8.7 SE 19 30 10 16 1019.9 1019.9 0.0
25/10:00am 23.3 19.4 8.6 39 7.8 ESE 19 30 10 16 1020.3 1020.3 0.0
25/09:30am 22.4 18.2 8.1 40 7.5 ESE 20 28 11 15 1020.6 1020.6 0.0
25/09:00am 21.5 16.8 7.7 41 7.1 E 22 32 12 17 1020.8 1020.8 0.0
25/08:30am 20.3 15.2 7.7 44 6.5 ESE 24 30 13 16 1021.1 1021.1 0.0
25/08:00am 18.9 13.7 7.4 47 5.8 E 24 32 13 17 1021.1 1021.1 0.0
25/07:30am 17.6 12.1 7.6 52 5.1 ESE 26 35 14 19 1021.0 1021.0 0.0
25/07:00am 16.3 11.2 7.5 56 4.4 ESE 24 33 13 18 1020.9 1020.9 0.0
25/06:30am 15.1 10.9 7.4 60 3.8 E 19 26 10 14 1020.9 1020.9 0.0
25/06:00am 13.6 10.6 7.6 67 2.9 ESE 13 17 7 9 1020.9 1020.9 0.0
25/05:30am 11.4 8.6 7.1 75 2.1 ESE 11 17 6 9 1021.0 1021.0 0.0
25/05:00am 10.4 7.5 6.4 76 1.9 ESE 11 13 6 7 1020.9 1020.9 0.0
25/04:30am 11.0 7.8 6.7 75 2.0 SE 13 17 7 9 1020.7 1020.7 0.0
25/04:00am 10.9 8.0 6.6 75 2.0 SSE 11 15 6 8 1020.6 1020.6 0.0
25/03:30am 11.0 8.1 6.7 75 2.0 SSE 11 15 6 8 1020.6 1020.6 0.0
25/03:00am 10.7 7.4 6.6 76 1.9 SSE 13 15 7 8 1020.7 1020.7 0.0
25/02:30am 11.4 8.2 6.9 74 2.1 SSE 13 15 7 8 1020.7 1020.7 0.0
25/02:00am 12.3 9.6 7.2 71 2.5 SSE 11 15 6 8 1020.6 1020.6 0.0
25/01:30am 12.9 9.4 7.4 69 2.7 SSE 15 19 8 10 1020.8 1020.8 0.0
25/01:00am 12.9 9.4 7.4 69 2.7 SE 15 20 8 11 1020.9 1020.9 0.0
25/12:30am 12.9 9.1 7.4 69 2.7 SSE 17 22 9 12 1021.1 1021.1 0.0
25/12:00am 12.9 9.1 7.6 70 2.6 SSE 17 22 9 12 1021.4 1021.4 0.0
 
Date/Time
WST
Temp
°C
App
Temp
°C
Dew
Point
Rel
Hum
%
Delta-T
°C
Wind Press
QNH
hPa
Press
MSL
hPa
Rain
since 9 am
mm
Dir
 
Spd
km/h
Gust
km/h
Spd
kts
Gust
kts
24/11:30pm 13.1 9.0 7.8 70 2.6 SSE 19 24 10 13 1021.6 1021.6 0.0
24/11:00pm 13.3 9.5 7.7 69 2.7 S 17 22 9 12 1021.8 1021.8 0.0
24/10:30pm 13.9 10.2 7.9 67 3.0 S 17 20 9 11 1021.8 1021.8 0.0
24/10:00pm 14.6 10.9 8.1 65 3.2 SSE 17 22 9 12 1021.7 1021.7 0.0
24/09:30pm 15.1 10.9 8.3 64 3.4 SSE 20 30 11 16 1021.6 1021.6 0.0
24/09:00pm 15.2 11.6 8.2 63 3.5 SSE 17 28 9 15 1021.6 1021.6 0.0
24/08:30pm 15.4 10.9 8.4 63 3.5 S 22 33 12 18 1021.5 1021.5 0.0
24/08:00pm 15.5 10.6 8.3 62 3.6 S 24 33 13 18 1021.5 1021.5 0.0
24/07:30pm 16.0 11.4 8.2 60 3.9 S 22 30 12 16 1021.2 1021.2 0.0
24/07:00pm 16.4 11.1 8.4 59 4.1 S 26 35 14 19 1021.0 1021.0 0.0
24/06:30pm 17.5 11.1 8.4 55 4.7 S 32 44 17 24 1021.1 1021.1 0.0
24/06:18pm 17.9 12.2 8.5 54 4.8 S 28 46 15 25 1020.7 1020.7 0.0
24/06:00pm 18.5 12.8 8.5 52 5.2 S 28 39 15 21 1020.5 1020.5 0.0
24/05:30pm 19.9 13.5 8.6 48 5.9 S 32 39 17 21 1020.2 1020.2 0.0
24/05:00pm 20.5 13.9 8.5 46 6.3 S 33 41 18 22 1020.2 1020.2 0.0
24/04:30pm 22.1 15.6 8.9 43 7.0 S 33 43 18 23 1020.1 1020.1 0.0
24/04:00pm 22.9 16.3 8.6 40 7.6 S 33 43 18 23 1019.8 1019.8 0.0
24/03:46pm 24.2 18.6 8.6 37 8.4 S 28 44 15 24 1019.7 1019.7 0.0
24/03:30pm 25.5 23.0 6.7 30 9.8 SSW 9 20 5 11 1019.6 1019.6 0.0
24/03:00pm 24.7 21.7 6.0 30 9.6 ESE 11 20 6 11 1019.8 1019.8 0.0
24/02:30pm 24.0 21.3 5.4 30 9.4 E 9 15 5 8 1020.1 1020.1 0.0
24/02:00pm 23.7 19.5 5.6 31 9.1 SSE 17 26 9 14 1020.5 1020.5 0.0
24/01:30pm 23.3 19.9 5.7 32 8.9 E 13 22 7 12 1020.9 1020.9 0.0
24/01:00pm 21.7 18.5 5.2 34 8.1 S 11 19 6 10 1021.2 1021.2 0.0
24/12:30pm 21.9 17.0 5.3 34 8.3 SE 20 28 11 15 1021.5 1021.5 0.0
24/12:00pm 21.2 18.4 5.1 35 7.9 ENE 9 17 5 9 1021.8 1021.8 0.0
24/11:30am 20.8 17.8 6.0 38 7.4 SSE 11 20 6 11 1022.2 1022.2 0.0
24/11:00am 20.0 16.6 6.0 40 6.9 E 13 24 7 13 1022.5 1022.5 0.0
24/10:30am 19.0 15.2 5.8 42 6.5 SE 15 24 8 13 1022.8 1022.8 0.0
24/10:00am 18.9 15.0 5.4 41 6.6 SSE 15 28 8 15 1023.2 1023.2 0.0
24/09:30am 17.7 13.4 5.3 44 6.0 E 17 24 9 13 1023.5 1023.4 0.0
24/09:00am 17.1 12.8 5.4 46 5.6 SE 17 24 9 13 1023.7 1023.6 0.0
24/08:30am 16.8 11.9 5.1 46 5.6 SE 20 32 11 17 1024.0 1023.9 0.0
24/08:00am 16.0 10.7 5.0 48 5.2 SE 22 28 12 15 1024.3 1024.2 0.0
24/07:30am 15.1 11.7 6.1 55 4.3 SE 13 19 7 10 1024.3 1024.2 0.0
24/07:00am 12.7 10.6 6.7 67 2.9 SE 7 9 4 5 1024.0 1023.9 0.0
24/06:30am 9.4 7.3 5.9 79 1.6 S 6 7 3 4 1023.8 1023.7 0.0
24/06:00am 6.2 3.7 5.0 92 0.5 SSW 7 7 4 4 1023.7 1023.6 0.0
24/05:30am 4.4 1.7 2.9 90 0.6 SSW 6 7 3 4 1023.6 1023.5 0.0
24/05:00am 3.9 1.1 2.3 89 0.6 S 6 7 3 4 1023.2 1023.2 0.0
24/04:30am 4.2 1.3 2.6 89 0.6 SSW 7 9 4 5 1022.9 1022.9 0.0
24/04:00am 4.1 1.3 2.1 87 0.8 S 6 7 3 4 1022.7 1022.7 0.0
24/03:30am 4.8 2.0 3.0 88 0.7 SSW 7 9 4 5 1022.6 1022.6 0.0
24/03:00am 4.6 1.3 2.6 87 0.8 S 9 11 5 6 1022.5 1022.5 0.0
24/02:30am 4.9 1.3 3.2 89 0.7 SSW 11 13 6 7 1022.5 1022.5 0.0
24/02:00am 4.6 1.8 2.9 89 0.7 SSW 7 9 4 5 1022.4 1022.4 0.0
24/01:30am 4.4 1.0 2.1 85 0.9 SW 9 13 5 7 1022.5 1022.5 0.0
24/01:00am 5.5 2.9 3.2 85 0.9 SSW 6 9 3 5 1022.4 1022.4 0.0
24/12:30am 5.7 3.2 3.7 87 0.8 SE 6 7 3 4 1022.4 1022.4 0.0
24/12:00am 5.2 2.3 2.4 82 1.1 SSW 7 7 4 4 1022.6 1022.6 0.0
 
Date/Time
WST
Temp
°C
App
Temp
°C
Dew
Point
Rel
Hum
%
Delta-T
°C
Wind Press
QNH
hPa
Press
MSL
hPa
Rain
since 9 am
mm
Dir
 
Spd
km/h
Gust
km/h
Spd
kts
Gust
kts
23/11:30pm 7.9 5.5 4.5 79 1.5 SSW 6 7 3 4 1022.6 1022.6 0.0
23/11:00pm 7.4 4.8 4.4 81 1.3 S 7 9 4 5 1022.5 1022.5 0.0
23/10:30pm 8.5 5.5 4.3 75 1.8 S 9 11 5 6 1022.5 1022.5 0.0
23/10:00pm 9.2 6.3 4.6 73 2.0 S 9 11 5 6 1022.4 1022.4 0.0

Other Formats:

Comma delimited format used in spreadsheet applications
http://www.bom.gov.au/fwo/IDW60801/IDW60801.95611.axf

JavaScript Object Notation format (JSON) in row-major order
http://www.bom.gov.au/fwo/IDW60801/IDW60801.95611.json